createdAt,value
2023-03-05T00:00:15.289Z,2.90
2023-03-05T00:03:37.381Z,2.80
2023-03-05T00:06:59.335Z,2.80
2023-03-05T00:10:21.428Z,2.80
2023-03-05T00:13:43.681Z,3.00
2023-03-05T00:17:05.733Z,3.00
2023-03-05T00:20:27.758Z,2.90
2023-03-05T00:23:53.119Z,2.90
2023-03-05T00:27:15.180Z,2.90
2023-03-05T00:30:37.240Z,2.90
2023-03-05T00:34:01.938Z,2.90
2023-03-05T00:37:23.897Z,2.80
2023-03-05T00:40:45.977Z,2.80
2023-03-05T00:44:08.357Z,2.80
2023-03-05T00:47:30.303Z,2.70
2023-03-05T00:50:52.804Z,2.50
2023-03-05T00:54:14.945Z,2.50
2023-03-05T00:57:36.949Z,2.40
2023-03-05T01:01:00.437Z,2.40
2023-03-05T01:04:22.763Z,2.50
2023-03-05T01:07:44.762Z,2.50
2023-03-05T01:11:08.396Z,2.40
2023-03-05T01:14:30.394Z,2.30
2023-03-05T01:17:52.869Z,2.30
2023-03-05T01:21:14.830Z,2.20
2023-03-05T01:24:36.848Z,2.20
2023-03-05T01:27:58.953Z,2.20
2023-03-05T01:31:21.505Z,2.10
2023-03-05T01:34:43.671Z,2.00
2023-03-05T01:38:05.631Z,2.00
2023-03-05T01:41:27.825Z,2.00
2023-03-05T01:45:04.412Z,1.90
2023-03-05T01:48:27.086Z,1.90
2023-03-05T01:52:11.279Z,2.00
2023-03-05T01:55:37.233Z,2.00
2023-03-05T01:59:03.674Z,2.00
2023-03-05T02:02:27.061Z,2.00
2023-03-05T02:05:49.413Z,1.90
2023-03-05T02:09:12.716Z,1.90
2023-03-05T02:12:35.136Z,2.00
2023-03-05T02:16:00.370Z,2.20
2023-03-05T02:19:22.326Z,2.40
2023-03-05T02:22:44.460Z,2.30
2023-03-05T02:26:11.045Z,2.30
2023-03-05T02:29:34.191Z,2.10
2023-03-05T02:32:56.158Z,2.00
2023-03-05T02:36:18.912Z,1.80
2023-03-05T02:39:41.039Z,1.70
2023-03-05T02:43:04.498Z,1.70
2023-03-05T02:46:26.884Z,1.70
2023-03-05T02:49:48.858Z,1.70
2023-03-05T02:53:10.976Z,1.60
2023-03-05T02:56:34.440Z,1.60
2023-03-05T02:59:57.032Z,1.50
2023-03-05T03:03:19.078Z,1.50
2023-03-05T03:06:41.059Z,1.40
2023-03-05T03:10:04.335Z,1.30
2023-03-05T03:13:26.332Z,1.30
2023-03-05T03:16:48.710Z,1.30
2023-03-05T03:20:17.154Z,1.20
2023-03-05T03:23:39.124Z,1.10
2023-03-05T03:27:01.830Z,1.00
2023-03-05T03:30:23.914Z,1.00
2023-03-05T03:33:45.977Z,1.00
2023-03-05T03:37:08.979Z,1.00
2023-03-05T03:40:31.796Z,0.90
2023-03-05T03:43:53.787Z,0.90
2023-03-05T03:47:16.078Z,0.80
2023-03-05T03:50:44.237Z,0.80
2023-03-05T03:54:06.218Z,0.70
2023-03-05T03:57:29.718Z,0.80
2023-03-05T04:00:51.682Z,0.80
2023-03-05T04:04:14.473Z,0.80
2023-03-05T04:07:36.474Z,0.90
2023-03-05T04:11:00.309Z,0.90
2023-03-05T04:14:22.297Z,0.90
2023-03-05T04:17:44.340Z,0.90
2023-03-05T04:21:06.806Z,0.90
2023-03-05T04:24:28.864Z,0.90
2023-03-05T04:27:50.996Z,0.90
2023-03-05T04:31:13.215Z,0.90
2023-03-05T04:34:37.064Z,0.90
2023-03-05T04:37:59.017Z,0.90
2023-03-05T04:41:20.998Z,0.80
2023-03-05T04:44:43.055Z,0.80
2023-03-05T04:48:05.151Z,0.70
2023-03-05T04:51:27.147Z,0.80
2023-03-05T04:54:49.144Z,0.70
2023-03-05T04:58:11.116Z,0.70
2023-03-05T05:01:35.188Z,0.70
2023-03-05T05:04:57.166Z,0.60
2023-03-05T05:08:19.167Z,0.50
2023-03-05T05:11:41.382Z,0.50
2023-03-05T05:15:05.107Z,0.50
2023-03-05T05:18:27.308Z,0.40
2023-03-05T05:21:49.390Z,0.30
2023-03-05T05:25:11.678Z,0.30
2023-03-05T05:28:35.144Z,0.30
2023-03-05T05:31:57.266Z,0.30
2023-03-05T05:35:20.007Z,0.30
2023-03-05T05:38:43.052Z,0.20
2023-03-05T05:42:05.552Z,0.20
2023-03-05T05:45:28.458Z,0.20
2023-03-05T05:48:51.115Z,0.20
2023-03-05T05:52:13.834Z,0.20
2023-03-05T05:55:35.862Z,0.20
2023-03-05T05:58:57.841Z,0.40
2023-03-05T06:02:19.811Z,0.40
2023-03-05T06:05:42.878Z,0.50
2023-03-05T06:09:32.986Z,0.50
2023-03-05T06:12:55.889Z,0.60
2023-03-05T06:16:36.197Z,0.60
2023-03-05T06:19:59.006Z,0.70
2023-03-05T06:23:20.970Z,0.90
2023-03-05T06:26:43.003Z,1.00
2023-03-05T06:30:06.652Z,1.20
2023-03-05T06:33:29.325Z,1.30
2023-03-05T06:36:51.274Z,1.50
2023-03-05T06:40:20.434Z,1.70
2023-03-05T06:43:45.091Z,2.20
2023-03-05T06:47:10.471Z,3.40
2023-03-05T06:50:35.720Z,4.70
2023-03-05T06:54:01.338Z,6.10
2023-03-05T06:57:23.854Z,6.70
2023-03-05T07:00:46.903Z,6.90
2023-03-05T07:04:09.387Z,6.90
2023-03-05T07:07:32.156Z,6.90
2023-03-05T07:10:54.134Z,7.00
2023-03-05T07:14:16.138Z,7.00
2023-03-05T07:17:38.090Z,7.10
2023-03-05T07:21:08.253Z,7.10
2023-03-05T07:24:30.800Z,7.30
2023-03-05T07:27:56.556Z,8.50
2023-03-05T07:31:27.187Z,10.20
2023-03-05T07:34:49.298Z,11.60
2023-03-05T07:38:11.339Z,12.90
2023-03-05T07:41:33.335Z,14.40
2023-03-05T07:44:55.320Z,15.70
2023-03-05T07:48:20.991Z,15.60
2023-03-05T07:51:43.075Z,15.20
2023-03-05T07:55:05.422Z,15.00
2023-03-05T07:58:27.635Z,14.50
2023-03-05T08:01:49.763Z,14.50
2023-03-05T08:05:12.042Z,15.40
2023-03-05T08:08:34.296Z,15.90
2023-03-05T08:11:56.327Z,16.10
2023-03-05T08:15:18.496Z,14.90
2023-03-05T08:18:40.988Z,14.30
2023-03-05T08:22:03.029Z,15.00
2023-03-05T08:25:25.025Z,15.80
2023-03-05T08:28:47.814Z,16.60
2023-03-05T08:32:09.904Z,16.90
2023-03-05T08:35:31.994Z,17.20
2023-03-05T08:38:53.967Z,16.80
2023-03-05T08:42:15.925Z,17.20
2023-03-05T08:45:40.112Z,17.10
2023-03-05T08:49:02.112Z,17.00
2023-03-05T08:52:24.686Z,16.80
2023-03-05T08:55:55.561Z,16.50
2023-03-05T08:59:17.856Z,16.30
2023-03-05T09:02:40.506Z,16.30
2023-03-05T09:06:06.016Z,16.70
2023-03-05T09:09:30.043Z,16.40
2023-03-05T09:12:52.670Z,15.50
2023-03-05T09:16:17.335Z,16.30
2023-03-05T09:19:39.405Z,15.90
2023-03-05T09:23:01.532Z,16.10
2023-03-05T09:26:23.490Z,16.60
2023-03-05T09:29:45.463Z,16.40
2023-03-05T09:33:07.471Z,16.90
2023-03-05T09:36:31.883Z,16.70
2023-03-05T09:39:53.864Z,16.10
2023-03-05T09:43:34.565Z,16.40
2023-03-05T09:47:24.850Z,17.10
2023-03-05T09:51:02.455Z,17.10
2023-03-05T09:54:43.237Z,17.10
2023-03-05T09:58:32.522Z,16.40
2023-03-05T10:01:59.773Z,16.60
2023-03-05T10:05:36.618Z,16.70
2023-03-05T10:09:11.872Z,16.10
2023-03-05T10:12:46.653Z,16.50
2023-03-05T10:16:36.446Z,17.50
2023-03-05T10:20:27.363Z,17.10
2023-03-05T10:23:58.874Z,17.20
2023-03-05T10:27:39.332Z,17.00
2023-03-05T10:31:26.154Z,17.00
2023-03-05T10:35:12.978Z,17.10
2023-03-05T10:38:57.005Z,17.00
2023-03-05T10:42:22.472Z,16.90
2023-03-05T10:45:56.691Z,16.70
2023-03-05T10:49:30.411Z,16.50
2023-03-05T10:53:08.894Z,17.10
2023-03-05T10:56:31.951Z,16.90
2023-03-05T11:00:01.358Z,16.60
2023-03-05T11:03:23.356Z,16.60
2023-03-05T11:06:48.813Z,16.30
2023-03-05T11:10:21.824Z,16.10
2023-03-05T11:14:02.975Z,16.10
2023-03-05T11:17:49.482Z,16.30
2023-03-05T11:21:27.931Z,16.30
2023-03-05T11:25:10.648Z,16.40
2023-03-05T11:28:41.471Z,16.10
2023-03-05T11:32:25.630Z,16.80
2023-03-05T11:35:51.720Z,16.90
2023-03-05T11:39:19.447Z,17.30
2023-03-05T11:42:42.259Z,16.70
2023-03-05T11:46:05.218Z,16.50
2023-03-05T11:49:29.750Z,16.20
2023-03-05T11:52:54.701Z,16.20
2023-03-05T11:56:30.114Z,16.50
2023-03-05T11:59:55.650Z,16.20
2023-03-05T12:03:36.383Z,16.60
2023-03-05T12:07:01.827Z,16.80
2023-03-05T12:10:25.657Z,17.10
2023-03-05T12:13:59.494Z,16.70
2023-03-05T12:17:37.523Z,16.90
2023-03-05T12:21:15.824Z,16.80
2023-03-05T12:24:39.568Z,16.80
2023-03-05T12:28:02.493Z,17.40
2023-03-05T12:31:39.450Z,17.10
2023-03-05T12:35:26.064Z,17.20
2023-03-05T12:38:52.908Z,17.30
2023-03-05T12:42:30.207Z,16.50
2023-03-05T12:45:52.962Z,16.40
2023-03-05T12:49:23.141Z,16.60
2023-03-05T12:52:46.435Z,16.60
2023-03-05T12:56:31.086Z,17.00
2023-03-05T12:59:58.556Z,17.10
2023-03-05T13:03:46.975Z,17.00
2023-03-05T13:07:16.046Z,16.50
2023-03-05T13:10:40.003Z,16.20
2023-03-05T13:14:02.931Z,16.40
2023-03-05T13:17:39.177Z,16.30
2023-03-05T13:21:12.941Z,16.40
2023-03-05T13:24:34.949Z,16.10
2023-03-05T13:28:12.297Z,16.20
2023-03-05T13:31:36.809Z,16.60
2023-03-05T13:35:01.276Z,16.70
2023-03-05T13:38:38.301Z,16.80
2023-03-05T13:42:16.752Z,16.60
2023-03-05T13:45:40.123Z,16.20
2023-03-05T13:49:24.222Z,16.30
2023-03-05T13:52:46.241Z,16.40
2023-03-05T13:56:18.035Z,16.50
2023-03-05T13:59:40.076Z,16.10
2023-03-05T14:03:23.008Z,16.00
2023-03-05T14:06:59.603Z,16.10
2023-03-05T14:10:33.865Z,16.10
2023-03-05T14:14:08.340Z,16.10
2023-03-05T14:17:42.411Z,16.00
2023-03-05T14:21:12.040Z,16.10
2023-03-05T14:24:34.192Z,16.40
2023-03-05T14:27:57.550Z,16.40
2023-03-05T14:31:21.474Z,16.50
2023-03-05T14:34:49.506Z,16.20
2023-03-05T14:38:23.497Z,15.80
2023-03-05T14:41:46.160Z,15.50
2023-03-05T14:45:20.680Z,15.40
2023-03-05T14:48:42.817Z,15.30
2023-03-05T14:55:58.513Z,15.30
2023-03-05T14:59:42.216Z,15.40
2023-03-05T15:03:29.895Z,15.40
2023-03-05T15:06:53.337Z,15.30
2023-03-05T15:10:20.699Z,15.00
2023-03-05T15:13:42.758Z,14.90
2023-03-05T15:17:04.747Z,14.60
2023-03-05T15:20:30.437Z,14.50
2023-03-05T15:23:52.970Z,14.50
2023-03-05T15:27:15.198Z,14.40
2023-03-05T15:30:47.404Z,14.50
2023-03-05T15:34:09.469Z,14.50
2023-03-05T15:37:31.406Z,14.50
2023-03-05T15:40:53.666Z,14.50
2023-03-05T15:44:15.627Z,14.50
2023-03-05T15:47:37.622Z,14.40
2023-03-05T15:50:59.674Z,14.30
2023-03-05T15:54:21.689Z,14.10
2023-03-05T15:57:46.947Z,14.20
2023-03-05T16:01:09.934Z,14.00
2023-03-05T16:04:32.664Z,13.90
2023-03-05T16:07:55.816Z,13.70
2023-03-05T16:11:18.550Z,13.50
2023-03-05T16:14:41.267Z,13.50
2023-03-05T16:18:06.705Z,13.40
2023-03-05T16:21:28.875Z,13.30
2023-03-05T16:24:50.908Z,13.20
2023-03-05T16:28:12.891Z,13.00
2023-03-05T16:31:38.270Z,12.90
2023-03-05T16:35:00.299Z,12.80
2023-03-05T16:38:22.283Z,12.70
2023-03-05T16:41:44.353Z,12.50
2023-03-05T16:45:07.287Z,12.40
2023-03-05T16:48:29.975Z,12.20
2023-03-05T16:51:52.042Z,12.00
2023-03-05T16:55:14.073Z,11.90
2023-03-05T16:58:38.551Z,11.80
2023-03-05T17:02:00.543Z,11.60
2023-03-05T17:05:22.772Z,11.40
2023-03-05T17:08:45.983Z,11.10
2023-03-05T17:12:08.681Z,11.00
2023-03-05T17:15:30.794Z,10.80
2023-03-05T17:18:56.514Z,10.70
2023-03-05T17:22:18.773Z,10.50
2023-03-05T17:25:40.969Z,10.30
2023-03-05T17:29:04.515Z,10.20
2023-03-05T17:32:26.672Z,10.00
2023-03-05T17:35:48.984Z,9.90
2023-03-05T17:39:11.332Z,9.70
2023-03-05T17:42:33.308Z,9.60
2023-03-05T17:45:59.721Z,9.50
2023-03-05T17:49:21.835Z,9.30
2023-03-05T17:52:43.855Z,9.20
2023-03-05T17:56:10.937Z,9.20
2023-03-05T17:59:32.956Z,9.10
2023-03-05T18:02:55.506Z,9.00
2023-03-05T18:06:17.489Z,8.90
2023-03-05T18:09:39.504Z,8.80
2023-03-05T18:13:01.784Z,8.70
2023-03-05T18:16:25.278Z,8.60
2023-03-05T18:19:47.349Z,8.50
2023-03-05T18:23:09.576Z,8.40
2023-03-05T18:26:31.858Z,8.30
2023-03-05T18:29:54.249Z,8.20
2023-03-05T18:33:20.223Z,8.20
2023-03-05T18:36:42.237Z,8.10
2023-03-05T18:40:09.598Z,8.10
2023-03-05T18:43:31.690Z,8.00
2023-03-05T18:46:53.881Z,8.00
2023-03-05T18:50:18.617Z,8.00
2023-03-05T18:53:40.626Z,8.00
2023-03-05T18:57:02.609Z,8.00
2023-03-05T19:00:30.530Z,8.10
2023-03-05T19:03:53.464Z,8.20
2023-03-05T19:07:15.509Z,8.30
2023-03-05T19:10:38.034Z,8.30
2023-03-05T19:14:00.570Z,8.40
2023-03-05T19:17:22.659Z,8.40
2023-03-05T19:20:44.663Z,8.40
2023-03-05T19:24:06.848Z,8.40
2023-03-05T19:27:29.307Z,8.50
2023-03-05T19:30:51.378Z,8.50
2023-03-05T19:34:13.772Z,8.50
2023-03-05T19:37:35.865Z,8.60
2023-03-05T19:40:57.814Z,8.70
2023-03-05T19:44:19.959Z,8.80
2023-03-05T19:47:41.913Z,8.80
2023-03-05T19:51:09.396Z,8.80
2023-03-05T19:54:31.927Z,8.90
2023-03-05T19:57:53.928Z,8.90
2023-03-05T20:01:18.202Z,9.10
2023-03-05T20:04:40.199Z,9.10
2023-03-05T20:08:02.424Z,9.20
2023-03-05T20:11:25.933Z,9.20
2023-03-05T20:14:49.385Z,9.20
2023-03-05T20:18:13.002Z,9.20
2023-03-05T20:21:40.807Z,9.20
2023-03-05T20:25:02.847Z,9.30
2023-03-05T20:28:27.826Z,9.50
2023-03-05T20:31:50.200Z,9.40
2023-03-05T20:35:17.531Z,9.40
2023-03-05T20:38:39.705Z,9.30
2023-03-05T20:42:01.707Z,9.20
2023-03-05T20:45:23.711Z,9.20
2023-03-05T20:48:48.063Z,9.00
2023-03-05T20:52:10.177Z,8.80
2023-03-05T20:55:32.721Z,8.60
2023-03-05T20:58:55.844Z,8.40
2023-03-05T21:02:18.408Z,8.20
2023-03-05T21:05:40.541Z,8.10
2023-03-05T21:09:02.860Z,7.90
2023-03-05T21:12:24.819Z,7.70
2023-03-05T21:15:46.780Z,7.60
2023-03-05T21:19:09.403Z,7.50
2023-03-05T21:22:32.449Z,7.40
2023-03-05T21:25:54.429Z,7.40
2023-03-05T21:29:16.448Z,7.30
2023-03-05T21:32:38.506Z,7.30
2023-03-05T21:36:00.577Z,7.10
2023-03-05T21:39:22.512Z,7.00
2023-03-05T21:42:45.528Z,7.00
2023-03-05T21:46:08.429Z,6.90
2023-03-05T21:49:30.507Z,7.00
2023-03-05T21:52:52.740Z,6.90
2023-03-05T21:56:25.636Z,7.00
2023-03-05T21:59:48.218Z,7.00
2023-03-05T22:03:12.936Z,7.10
2023-03-05T22:06:35.108Z,7.10
2023-03-05T22:09:57.670Z,7.10
2023-03-05T22:13:20.615Z,7.10
2023-03-05T22:16:42.688Z,7.00
2023-03-05T22:20:05.557Z,7.10
2023-03-05T22:23:31.385Z,7.00
2023-03-05T22:26:53.347Z,7.00
2023-03-05T22:30:15.705Z,7.00
2023-03-05T22:33:38.263Z,6.90
2023-03-05T22:37:00.220Z,6.80
2023-03-05T22:40:22.592Z,6.60
2023-03-05T22:43:44.551Z,6.40
2023-03-05T22:47:06.616Z,6.20
2023-03-05T22:50:28.747Z,6.10
2023-03-05T22:53:51.138Z,6.00
2023-03-05T22:57:13.429Z,5.90
2023-03-05T23:00:35.788Z,5.80
2023-03-05T23:04:48.412Z,5.80
2023-03-05T23:08:10.463Z,5.70
2023-03-05T23:11:32.530Z,5.50
2023-03-05T23:14:54.513Z,5.40
2023-03-05T23:18:16.528Z,5.20
2023-03-05T23:21:38.552Z,5.20
2023-03-05T23:25:00.675Z,5.10
2023-03-05T23:28:22.736Z,5.00
2023-03-05T23:31:44.736Z,4.90
2023-03-05T23:35:07.055Z,4.90
2023-03-05T23:38:30.599Z,4.80
2023-03-05T23:41:52.625Z,4.70
2023-03-05T23:45:16.497Z,4.70
2023-03-05T23:48:38.477Z,4.60
2023-03-05T23:52:00.453Z,4.60
2023-03-05T23:55:29.579Z,4.60
2023-03-05T23:58:51.677Z,4.60
